Time;durP1;ratioP1;P1;durP2;ratioP2;P2;SDS_P1;SDS_P2;PMS_P1;PMS_P2;Temp;Humidity;BMP_temperature;BMP_pressure;BME280_temperature;BME280_humidity;BME280_pressure;Samples;Min_cycle;Max_cycle;Signal;HPM_P1;HPM_P2
2023/02/17 00:00:10;;;;;;;3.15;0.88;;;;;;;;;;5030904;28;20030;-66
2023/02/17 00:02:36;;;;;;;1.77;0.90;;;;;;;;;;5030603;28;20489;-65
2023/02/17 00:05:02;;;;;;;2.05;0.95;;;;;;;;;;5030913;28;20032;-65
2023/02/17 00:07:30;;;;;;;2.60;0.90;;;;;;;;;;5030847;28;20033;-64
2023/02/17 00:09:56;;;;;;;2.10;0.60;;;;;;;;;;5030709;28;20490;-65
2023/02/17 00:12:22;;;;;;;2.90;0.60;;;;;;;;;;5030503;28;20021;-65
2023/02/17 00:14:48;;;;;;;3.17;1.20;;;;;;;;;;5029941;28;20121;-64
2023/02/17 00:17:14;;;;;;;2.67;0.60;;;;;;;;;;5030911;28;20029;-65
2023/02/17 00:19:40;;;;;;;1.45;0.73;;;;;;;;;;5030757;28;20030;-65
2023/02/17 00:22:06;;;;;;;2.08;0.82;;;;;;;;;;5030978;28;20100;-65
2023/02/17 00:24:33;;;;;;;3.10;0.80;;;;;;;;;;5030817;28;20113;-65
2023/02/17 00:26:59;;;;;;;1.90;0.70;;;;;;;;;;5030719;28;20060;-65
2023/02/17 00:29:26;;;;;;;3.58;0.80;;;;;;;;;;5030470;28;20060;-65
2023/02/17 00:31:52;;;;;;;2.10;0.80;;;;;;;;;;5029955;28;20477;-65
2023/02/17 00:34:18;;;;;;;1.13;0.60;;;;;;;;;;5031112;28;20026;-65
2023/02/17 00:36:44;;;;;;;1.75;0.70;;;;;;;;;;5030855;28;20030;-65
2023/02/17 00:39:12;;;;;;;1.05;0.50;;;;;;;;;;5030892;28;20026;-65
2023/02/17 00:41:38;;;;;;;2.75;1.00;;;;;;;;;;5030286;28;20026;-65
2023/02/17 00:44:04;;;;;;;1.85;0.70;;;;;;;;;;5030725;28;20037;-65
2023/02/17 00:46:30;;;;;;;2.85;0.60;;;;;;;;;;5030457;28;20029;-64
2023/02/17 00:48:56;;;;;;;2.63;0.60;;;;;;;;;;5030588;28;20108;-65
2023/02/17 00:51:23;;;;;;;2.67;0.60;;;;;;;;;;5030555;28;20037;-66
2023/02/17 00:53:49;;;;;;;3.38;0.80;;;;;;;;;;5030629;28;20025;-65
2023/02/17 00:56:15;;;;;;;2.65;0.70;;;;;;;;;;5030690;28;20486;-64
2023/02/17 00:58:41;;;;;;;3.17;0.70;;;;;;;;;;5030268;28;20029;-65
2023/02/17 01:01:07;;;;;;;1.88;0.60;;;;;;;;;;5030542;28;20057;-65
2023/02/17 01:03:33;;;;;;;1.50;0.70;;;;;;;;;;5030408;28;20026;-65
2023/02/17 01:06:04;;;;;;;1.15;0.60;;;;;;;;;;5030576;28;20316;-65
2023/02/17 01:08:30;;;;;;;2.35;0.63;;;;;;;;;;5029868;28;20037;-65
2023/02/17 01:10:56;;;;;;;1.25;0.60;;;;;;;;;;5030471;28;20038;-65
2023/02/17 01:13:22;;;;;;;1.83;0.60;;;;;;;;;;5030582;28;20017;-64
2023/02/17 01:15:49;;;;;;;1.92;0.85;;;;;;;;;;5030802;28;20030;-65
2023/02/17 01:18:16;;;;;;;1.80;0.95;;;;;;;;;;5033807;28;20332;-65
2023/02/17 01:20:43;;;;;;;1.80;0.73;;;;;;;;;;5033868;28;20659;-67
2023/02/17 01:23:09;;;;;;;2.53;0.70;;;;;;;;;;5033560;28;20044;-67
2023/02/17 01:25:39;;;;;;;1.10;0.60;;;;;;;;;;5033655;28;20026;-67
2023/02/17 01:28:06;;;;;;;2.67;0.80;;;;;;;;;;5033767;28;20112;-67
2023/02/17 01:30:32;;;;;;;7.18;0.77;;;;;;;;;;5033525;28;20044;-67
2023/02/17 01:32:58;;;;;;;1.33;0.50;;;;;;;;;;5033297;28;20551;-67
2023/02/17 01:35:24;;;;;;;1.25;0.60;;;;;;;;;;5033547;28;20029;-67
2023/02/17 01:37:50;;;;;;;5.72;0.88;;;;;;;;;;5033713;28;20076;-66
2023/02/17 01:40:16;;;;;;;1.40;0.68;;;;;;;;;;5033588;28;20491;-67
2023/02/17 01:42:42;;;;;;;3.08;0.82;;;;;;;;;;5033398;28;20579;-67
2023/02/17 01:45:17;;;;;;;4.53;0.82;;;;;;;;;;5033529;28;20057;-67
2023/02/17 01:47:49;;;;;;;2.40;0.90;;;;;;;;;;5033296;28;20080;-67
2023/02/17 01:50:16;;;;;;;1.88;0.85;;;;;;;;;;5033354;28;20296;-67
2023/02/17 01:52:42;;;;;;;3.63;1.23;;;;;;;;;;5032863;28;20636;-67
2023/02/17 01:55:10;;;;;;;3.35;0.80;;;;;;;;;;5033227;28;20026;-67
2023/02/17 01:57:38;;;;;;;2.38;0.60;;;;;;;;;;5033148;28;20022;-67
2023/02/17 02:00:05;;;;;;;1.33;0.60;;;;;;;;;;5033282;28;20053;-67
2023/02/17 02:02:31;;;;;;;1.73;0.80;;;;;;;;;;5033054;28;20025;-67
2023/02/17 02:04:57;;;;;;;1.13;0.52;;;;;;;;;;5033284;28;20104;-66
2023/02/17 02:07:26;;;;;;;2.00;0.68;;;;;;;;;;5032427;28;20481;-66
2023/02/17 02:09:54;;;;;;;2.72;0.60;;;;;;;;;;5032784;28;20034;-67
2023/02/17 02:12:39;;;;;;;1.77;0.68;;;;;;;;;;5033441;28;20056;-67
2023/02/17 02:15:07;;;;;;;1.33;0.63;;;;;;;;;;5033036;28;20057;-67
2023/02/17 02:17:40;;;;;;;2.05;0.60;;;;;;;;;;5032785;28;20053;-67
2023/02/17 02:20:15;;;;;;;3.33;0.80;;;;;;;;;;5032913;28;20432;-67
2023/02/17 02:23:00;;;;;;;3.10;0.60;;;;;;;;;;5032700;28;20097;-67
2023/02/17 02:25:32;;;;;;;1.60;0.55;;;;;;;;;;5032473;28;20389;-67
2023/02/17 02:28:01;;;;;;;2.25;0.70;;;;;;;;;;5032406;28;20396;-67
2023/02/17 02:30:27;;;;;;;2.58;0.80;;;;;;;;;;5032345;28;20086;-67
2023/02/17 02:32:56;;;;;;;2.08;0.70;;;;;;;;;;5032687;28;20096;-67
2023/02/17 02:35:27;;;;;;;2.63;0.73;;;;;;;;;;5032500;28;20029;-67
2023/02/17 02:37:55;;;;;;;2.15;0.60;;;;;;;;;;5032303;28;20033;-67
2023/02/17 02:40:23;;;;;;;2.17;0.80;;;;;;;;;;5032851;28;20146;-67
2023/02/17 02:42:49;;;;;;;1.65;0.63;;;;;;;;;;5032680;28;20021;-67
2023/02/17 02:45:16;;;;;;;2.65;0.77;;;;;;;;;;5032076;28;20040;-66
2023/02/17 02:47:45;;;;;;;2.08;0.63;;;;;;;;;;5032210;28;20056;-67
2023/02/17 02:50:13;;;;;;;1.83;0.70;;;;;;;;;;5032204;28;20112;-67
2023/02/17 02:52:42;;;;;;;3.40;1.05;;;;;;;;;;5031657;28;20025;-67
2023/02/17 02:55:15;;;;;;;2.42;0.80;;;;;;;;;;5032227;28;20032;-67
2023/02/17 02:57:41;;;;;;;2.53;0.95;;;;;;;;;;5032259;28;20377;-67
2023/02/17 03:00:25;;;;;;;3.13;0.70;;;;;;;;;;5032196;28;20025;-67
2023/02/17 03:03:01;;;;;;;2.88;0.73;;;;;;;;;;5032495;28;20033;-67
2023/02/17 03:05:29;;;;;;;1.60;0.65;;;;;;;;;;5031815;28;20021;-67
2023/02/17 03:07:59;;;;;;;3.17;0.70;;;;;;;;;;5031726;28;20044;-66
2023/02/17 03:10:25;;;;;;;2.97;0.98;;;;;;;;;;5031382;28;20038;-67
2023/02/17 03:12:51;;;;;;;1.75;0.68;;;;;;;;;;5032311;28;20029;-67
2023/02/17 03:15:26;;;;;;;2.63;0.93;;;;;;;;;;5032130;28;20032;-66
2023/02/17 03:17:52;;;;;;;2.53;0.70;;;;;;;;;;5031963;28;20394;-67
2023/02/17 03:20:18;;;;;;;2.33;0.70;;;;;;;;;;5032103;28;20025;-67
2023/02/17 03:22:45;;;;;;;2.53;0.85;;;;;;;;;;5031500;28;20033;-67
2023/02/17 03:25:11;;;;;;;3.33;0.60;;;;;;;;;;5031735;28;20079;-67
2023/02/17 03:27:37;;;;;;;2.17;0.63;;;;;;;;;;5031509;28;20068;-66
2023/02/17 03:30:04;;;;;;;2.20;0.68;;;;;;;;;;5031485;28;20033;-67
2023/02/17 03:32:30;;;;;;;2.65;1.20;;;;;;;;;;5031350;28;20032;-67
2023/02/17 03:34:56;;;;;;;2.80;0.70;;;;;;;;;;5031010;28;20029;-67
2023/02/17 03:37:22;;;;;;;1.27;0.57;;;;;;;;;;5030549;28;20494;-66
2023/02/17 03:39:48;;;;;;;2.67;0.98;;;;;;;;;;5030882;28;20057;-67
2023/02/17 03:42:14;;;;;;;1.52;0.57;;;;;;;;;;5031415;28;20113;-66
2023/02/17 03:44:40;;;;;;;1.33;0.57;;;;;;;;;;5031119;28;20022;-67
2023/02/17 03:47:06;;;;;;;1.55;0.73;;;;;;;;;;5031262;28;20525;-67
2023/02/17 03:49:32;;;;;;;2.60;0.77;;;;;;;;;;5029585;28;20037;-67
2023/02/17 03:51:58;;;;;;;1.92;1.05;;;;;;;;;;5031302;28;20025;-67
2023/02/17 03:54:25;;;;;;;1.33;0.77;;;;;;;;;;5030749;28;20033;-67
2023/02/17 03:56:51;;;;;;;3.78;0.80;;;;;;;;;;5031888;28;20386;-67
2023/02/17 03:59:17;;;;;;;2.28;0.73;;;;;;;;;;5031360;28;20026;-67
2023/02/17 04:01:43;;;;;;;2.03;0.68;;;;;;;;;;5030804;28;20035;-67
2023/02/17 04:04:09;;;;;;;1.23;0.50;;;;;;;;;;5030795;28;20025;-67
2023/02/17 04:06:35;;;;;;;2.30;1.05;;;;;;;;;;5030897;28;20034;-67
2023/02/17 04:09:01;;;;;;;2.65;1.02;;;;;;;;;;5030365;28;20029;-67
2023/02/17 04:11:27;;;;;;;2.15;0.70;;;;;;;;;;5030918;28;20464;-67
2023/02/17 04:13:53;;;;;;;1.58;0.60;;;;;;;;;;5030990;28;20024;-67
2023/02/17 04:16:19;;;;;;;1.33;0.60;;;;;;;;;;5031377;28;20025;-67
2023/02/17 04:18:45;;;;;;;1.90;0.63;;;;;;;;;;5030527;28;20508;-67
2023/02/17 04:21:10;;;;;;;1.67;0.68;;;;;;;;;;5030584;28;20029;-67
2023/02/17 04:23:37;;;;;;;2.33;0.47;;;;;;;;;;5030289;28;20367;-67
2023/02/17 04:26:07;;;;;;;1.92;0.50;;;;;;;;;;5029805;28;20103;-67
2023/02/17 04:28:33;;;;;;;2.42;0.55;;;;;;;;;;5030703;28;20096;-67
2023/02/17 04:30:59;;;;;;;2.15;0.50;;;;;;;;;;5030805;28;20064;-67
2023/02/17 04:33:25;;;;;;;1.77;0.65;;;;;;;;;;5030552;28;20489;-67
2023/02/17 04:35:58;;;;;;;1.42;0.47;;;;;;;;;;5030646;28;20041;-67
2023/02/17 04:38:24;;;;;;;1.55;0.50;;;;;;;;;;5030473;28;20026;-67
2023/02/17 04:40:50;;;;;;;1.90;0.60;;;;;;;;;;5031039;28;20104;-67
2023/02/17 04:43:16;;;;;;;1.10;0.68;;;;;;;;;;5030726;28;20079;-67
2023/02/17 04:45:42;;;;;;;1.80;0.60;;;;;;;;;;5030499;28;20501;-67
2023/02/17 04:48:08;;;;;;;2.00;0.55;;;;;;;;;;5030640;28;20033;-67
2023/02/17 04:50:34;;;;;;;0.70;0.40;;;;;;;;;;5030023;28;20048;-67
2023/02/17 04:53:00;;;;;;;1.50;0.50;;;;;;;;;;5033795;28;20478;-67
2023/02/17 04:55:26;;;;;;;1.52;0.50;;;;;;;;;;5034203;28;20075;-67
2023/02/17 04:57:52;;;;;;;0.90;0.40;;;;;;;;;;5034552;28;20098;-67
2023/02/17 05:00:18;;;;;;;1.92;0.60;;;;;;;;;;5034272;28;20021;-67
2023/02/17 05:02:44;;;;;;;0.90;0.45;;;;;;;;;;5034108;28;20026;-67
2023/02/17 05:05:13;;;;;;;5.30;0.60;;;;;;;;;;5033907;28;20354;-67
2023/02/17 05:07:39;;;;;;;1.75;0.50;;;;;;;;;;5034097;28;20230;-67
2023/02/17 05:10:06;;;;;;;1.00;0.50;;;;;;;;;;5032600;28;20064;-67
2023/02/17 05:12:32;;;;;;;1.48;0.40;;;;;;;;;;5033510;28;20033;-67
2023/02/17 05:14:57;;;;;;;1.33;0.50;;;;;;;;;;5033979;28;20029;-67
2023/02/17 05:17:23;;;;;;;0.82;0.43;;;;;;;;;;5033984;28;20029;-67
2023/02/17 05:19:49;;;;;;;1.20;0.50;;;;;;;;;;5034398;28;20025;-67
2023/02/17 05:22:15;;;;;;;2.75;0.77;;;;;;;;;;5033974;28;20367;-67
2023/02/17 05:24:41;;;;;;;3.70;0.65;;;;;;;;;;5033681;28;20029;-67
2023/02/17 05:27:07;;;;;;;1.08;0.50;;;;;;;;;;5033532;28;20036;-67
2023/02/17 05:29:33;;;;;;;1.23;0.40;;;;;;;;;;5033460;28;20359;-67
2023/02/17 05:31:59;;;;;;;0.85;0.40;;;;;;;;;;5033774;28;20104;-67
2023/02/17 05:34:25;;;;;;;1.63;0.50;;;;;;;;;;5033096;28;20502;-67
2023/02/17 05:36:51;;;;;;;1.08;0.50;;;;;;;;;;5034039;28;20039;-67
2023/02/17 05:39:17;;;;;;;1.15;0.50;;;;;;;;;;5033673;28;20021;-67
2023/02/17 05:41:43;;;;;;;0.90;0.40;;;;;;;;;;5033147;28;20836;-67
2023/02/17 05:44:09;;;;;;;0.45;0.40;;;;;;;;;;5033522;28;20029;-67
2023/02/17 05:46:35;;;;;;;2.88;0.40;;;;;;;;;;5033316;28;20061;-67
2023/02/17 05:49:01;;;;;;;2.25;0.40;;;;;;;;;;5033533;28;20021;-67
2023/02/17 05:51:27;;;;;;;1.17;0.40;;;;;;;;;;5033193;28;20041;-67
2023/02/17 05:53:53;;;;;;;0.85;0.43;;;;;;;;;;5033659;28;20025;-67
2023/02/17 05:56:19;;;;;;;1.30;0.40;;;;;;;;;;5033249;28;20033;-67
2023/02/17 05:58:45;;;;;;;0.65;0.35;;;;;;;;;;5033272;28;20036;-67
2023/02/17 06:01:12;;;;;;;1.00;0.40;;;;;;;;;;5032719;28;20029;-67
2023/02/17 06:03:38;;;;;;;0.47;0.30;;;;;;;;;;5032805;28;20088;-67
2023/02/17 06:06:04;;;;;;;1.17;0.52;;;;;;;;;;5032798;28;20025;-67
2023/02/17 06:08:30;;;;;;;3.63;0.35;;;;;;;;;;5032796;28;20033;-67
2023/02/17 06:10:56;;;;;;;0.80;0.40;;;;;;;;;;5033229;28;20037;-67
2023/02/17 06:13:22;;;;;;;1.10;0.40;;;;;;;;;;5033045;28;20466;-67
2023/02/17 06:15:48;;;;;;;2.83;0.32;;;;;;;;;;5033345;28;20159;-67
2023/02/17 06:18:14;;;;;;;0.63;0.45;;;;;;;;;;5033082;28;20021;-67
2023/02/17 06:20:40;;;;;;;0.30;0.30;;;;;;;;;;5032433;28;20383;-67
2023/02/17 06:23:06;;;;;;;0.60;0.30;;;;;;;;;;5033168;28;20075;-67
2023/02/17 06:25:32;;;;;;;0.55;0.32;;;;;;;;;;5032723;28;20025;-67
2023/02/17 06:27:58;;;;;;;0.45;0.30;;;;;;;;;;5032919;28;20387;-67
2023/02/17 06:30:24;;;;;;;0.30;0.30;;;;;;;;;;5032826;28;20041;-67
2023/02/17 06:32:50;;;;;;;0.60;0.30;;;;;;;;;;5032137;28;20112;-67
2023/02/17 06:35:16;;;;;;;0.98;0.25;;;;;;;;;;5032784;28;20554;-67
2023/02/17 06:37:43;;;;;;;0.73;0.38;;;;;;;;;;5032477;28;20017;-67
2023/02/17 06:40:09;;;;;;;0.73;0.30;;;;;;;;;;5032542;28;20540;-67
2023/02/17 06:42:35;;;;;;;1.15;0.47;;;;;;;;;;5031661;28;20030;-67
2023/02/17 06:45:04;;;;;;;0.22;0.22;;;;;;;;;;5032595;28;20167;-67
2023/02/17 06:47:30;;;;;;;0.65;0.28;;;;;;;;;;5031280;28;20022;-63
2023/02/17 06:49:56;;;;;;;0.93;0.30;;;;;;;;;;5032435;28;20037;-66
2023/02/17 06:52:22;;;;;;;0.75;0.40;;;;;;;;;;5032503;28;20021;-65
2023/02/17 06:54:48;;;;;;;0.82;0.20;;;;;;;;;;5032395;28;20060;-64
2023/02/17 06:57:15;;;;;;;3.95;0.20;;;;;;;;;;5032214;28;20102;-65
2023/02/17 06:59:41;;;;;;;2.08;0.45;;;;;;;;;;5032107;28;20026;-65
2023/02/17 07:02:11;;;;;;;0.82;0.30;;;;;;;;;;5030887;28;20025;-64
2023/02/17 07:04:36;;;;;;;2.90;0.40;;;;;;;;;;5034959;28;20035;-68
2023/02/17 07:07:02;;;;;;;0.55;0.30;;;;;;;;;;5051886;28;20096;-65
2023/02/17 07:09:28;;;;;;;2.38;0.30;;;;;;;;;;5044170;28;20033;-64
2023/02/17 07:11:56;;;;;;;2.00;0.30;;;;;;;;;;5031622;28;20108;-64
2023/02/17 07:14:22;;;;;;;1.10;0.30;;;;;;;;;;5029788;28;20508;-65
2023/02/17 07:16:48;;;;;;;0.80;0.63;;;;;;;;;;5031385;28;20442;-64
2023/02/17 07:19:14;;;;;;;0.98;0.40;;;;;;;;;;5031093;28;20079;-64
2023/02/17 07:21:40;;;;;;;0.70;0.30;;;;;;;;;;5024339;28;20053;-59
2023/02/17 07:24:06;;;;;;;0.65;0.20;;;;;;;;;;5022046;28;20030;-59
2023/02/17 07:26:34;;;;;;;0.50;0.20;;;;;;;;;;5023363;28;20030;-60
2023/02/17 07:29:00;;;;;;;0.75;0.28;;;;;;;;;;5027327;28;20036;-59
2023/02/17 07:31:26;;;;;;;0.88;0.40;;;;;;;;;;5035953;28;20040;-60
2023/02/17 07:33:52;;;;;;;3.35;0.32;;;;;;;;;;5037638;28;20375;-60
2023/02/17 07:36:18;;;;;;;2.45;0.38;;;;;;;;;;5027930;28;20037;-60
2023/02/17 07:38:45;;;;;;;2.00;0.40;;;;;;;;;;5023024;28;20500;-60
2023/02/17 07:41:12;;;;;;;2.33;0.30;;;;;;;;;;5027649;28;20032;-60
2023/02/17 07:43:38;;;;;;;2.35;0.40;;;;;;;;;;5030311;28;20061;-60
2023/02/17 07:46:04;;;;;;;1.45;0.43;;;;;;;;;;5024716;28;20025;-60
2023/02/17 07:48:30;;;;;;;1.23;0.50;;;;;;;;;;5023165;28;20030;-59
2023/02/17 07:50:56;;;;;;;2.53;0.90;;;;;;;;;;5025148;28;20056;-60
2023/02/17 07:53:23;;;;;;;1.85;0.43;;;;;;;;;;5033928;28;20400;-60
2023/02/17 07:55:49;;;;;;;2.80;0.47;;;;;;;;;;5030888;28;20032;-60
2023/02/17 07:58:15;;;;;;;2.05;0.40;;;;;;;;;;5025226;28;20409;-60
2023/02/17 08:00:42;;;;;;;0.95;0.30;;;;;;;;;;5024545;28;20117;-60
2023/02/17 08:03:09;;;;;;;0.98;0.43;;;;;;;;;;5033908;28;20036;-60
2023/02/17 08:05:37;;;;;;;1.90;0.47;;;;;;;;;;5032362;28;20075;-60
2023/02/17 08:13:32;;;;;;;4.10;0.60;;;;;;;;;;5033177;28;20023;-60
2023/02/17 08:15:58;;;;;;;2.75;0.30;;;;;;;;;;5027173;28;20085;-60
2023/02/17 08:18:24;;;;;;;1.23;0.30;;;;;;;;;;5024345;28;20022;-60
2023/02/17 08:20:51;;;;;;;2.15;0.40;;;;;;;;;;5026815;28;20033;-60
2023/02/17 08:23:17;;;;;;;2.40;0.50;;;;;;;;;;5033571;28;20340;-59
2023/02/17 08:25:43;;;;;;;0.75;0.30;;;;;;;;;;5029852;28;20029;-60
2023/02/17 08:28:11;;;;;;;1.42;0.30;;;;;;;;;;5036203;28;20025;-60
2023/02/17 08:30:37;;;;;;;2.97;0.50;;;;;;;;;;5032069;28;20037;-60
2023/02/17 08:33:03;;;;;;;1.80;0.50;;;;;;;;;;5034569;28;20014;-60
2023/02/17 08:35:30;;;;;;;0.80;0.40;;;;;;;;;;5039298;28;20542;-60
2023/02/17 08:37:56;;;;;;;0.85;0.30;;;;;;;;;;5040237;28;20024;-60
2023/02/17 08:40:22;;;;;;;0.93;0.47;;;;;;;;;;5034772;28;20029;-60
2023/02/17 08:42:48;;;;;;;2.63;0.50;;;;;;;;;;5033388;28;20022;-60
2023/02/17 08:45:14;;;;;;;2.63;0.63;;;;;;;;;;5038796;28;20037;-60
2023/02/17 08:47:40;;;;;;;0.70;0.30;;;;;;;;;;5040463;28;20032;-60
2023/02/17 08:50:07;;;;;;;1.33;0.50;;;;;;;;;;5040839;28;20112;-60
2023/02/17 08:52:33;;;;;;;1.42;0.50;;;;;;;;;;5034217;28;20022;-60
2023/02/17 08:54:59;;;;;;;0.60;0.30;;;;;;;;;;5035883;28;20022;-60
2023/02/17 08:57:25;;;;;;;2.15;0.30;;;;;;;;;;5039730;28;20405;-59
2023/02/17 08:59:52;;;;;;;2.45;0.75;;;;;;;;;;5035511;28;20533;-60
2023/02/17 09:02:18;;;;;;;0.80;0.40;;;;;;;;;;5040293;28;20035;-60
2023/02/17 09:04:44;;;;;;;0.70;0.40;;;;;;;;;;5035428;28;20029;-60
2023/02/17 09:07:11;;;;;;;2.22;0.50;;;;;;;;;;5039916;28;20073;-60
2023/02/17 09:09:37;;;;;;;1.13;0.30;;;;;;;;;;5042389;28;20033;-59
2023/02/17 09:12:03;;;;;;;6.43;0.95;;;;;;;;;;5042834;28;20127;-60
2023/02/17 09:14:29;;;;;;;1.85;0.40;;;;;;;;;;5039169;28;20025;-59
2023/02/17 09:16:56;;;;;;;1.52;0.32;;;;;;;;;;5036950;28;20092;-60
2023/02/17 09:19:22;;;;;;;2.28;0.68;;;;;;;;;;5043268;28;20078;-60
2023/02/17 09:21:48;;;;;;;4.55;0.68;;;;;;;;;;5043797;28;20082;-60
2023/02/17 09:24:15;;;;;;;0.45;0.22;;;;;;;;;;5043876;28;20025;-59
2023/02/17 09:26:41;;;;;;;0.55;0.38;;;;;;;;;;5038739;28;20121;-59
2023/02/17 09:29:07;;;;;;;3.88;0.50;;;;;;;;;;5041701;28;20022;-59
2023/02/17 09:31:34;;;;;;;1.88;0.43;;;;;;;;;;5035803;28;20035;-59
2023/02/17 09:34:01;;;;;;;1.95;0.45;;;;;;;;;;5044941;28;20025;-59
2023/02/17 09:36:28;;;;;;;0.70;0.25;;;;;;;;;;5045314;28;20544;-60
2023/02/17 09:38:55;;;;;;;0.95;0.40;;;;;;;;;;5038404;28;20092;-59
2023/02/17 09:41:30;;;;;;;0.52;0.40;;;;;;;;;;5045479;28;20456;-59
2023/02/17 09:43:56;;;;;;;;;;;;;;;;;;5046502;28;20025;-59
2023/02/17 09:46:25;;;;;;;1.50;0.38;;;;;;;;;;5045790;28;20450;-59
2023/02/17 09:48:54;;;;;;;0.50;0.30;;;;;;;;;;5040781;28;20100;-59
2023/02/17 09:51:31;;;;;;;1.27;0.50;;;;;;;;;;5046423;28;20033;-59
2023/02/17 09:54:02;;;;;;;0.40;0.30;;;;;;;;;;5046964;28;20021;-59
2023/02/17 09:56:32;;;;;;;0.57;0.30;;;;;;;;;;5047044;28;20494;-59
2023/02/17 09:59:06;;;;;;;0.70;0.32;;;;;;;;;;5013865;28;20026;-59
2023/02/17 10:01:34;;;;;;;0.43;0.30;;;;;;;;;;5013179;28;20022;-59
2023/02/17 10:04:06;;;;;;;0.65;0.30;;;;;;;;;;5013215;28;20021;-59
2023/02/17 10:06:44;;;;;;;0.52;0.20;;;;;;;;;;5012906;28;20026;-59
2023/02/17 10:09:23;;;;;;;1.13;0.30;;;;;;;;;;5013089;28;20026;-60
2023/02/17 10:12:05;;;;;;;2.35;0.32;;;;;;;;;;5013432;28;20046;-60
2023/02/17 10:14:51;;;;;;;2.25;0.57;;;;;;;;;;5012985;28;20026;-59
2023/02/17 10:17:36;;;;;;;0.70;0.30;;;;;;;;;;5012966;28;20030;-60
2023/02/17 10:20:10;;;;;;;1.30;0.60;;;;;;;;;;5013135;28;20087;-59
2023/02/17 10:22:36;;;;;;;0.32;0.20;;;;;;;;;;5012590;28;20037;-60
2023/02/17 10:25:02;;;;;;;1.00;0.20;;;;;;;;;;5028427;28;20089;-60
2023/02/17 10:27:36;;;;;;;0.90;0.30;;;;;;;;;;5032852;28;20025;-60
2023/02/17 10:30:02;;;;;;;0.32;0.20;;;;;;;;;;5032111;28;20498;-60
2023/02/17 10:32:29;;;;;;;1.35;0.20;;;;;;;;;;5032145;28;20108;-60
2023/02/17 10:34:55;;;;;;;0.45;0.22;;;;;;;;;;5031813;28;20033;-59
2023/02/17 10:37:37;;;;;;;2.13;0.30;;;;;;;;;;5029750;28;20608;-60
2023/02/17 10:40:09;;;;;;;1.23;0.30;;;;;;;;;;5031952;28;20034;-59
2023/02/17 10:42:37;;;;;;;0.20;0.20;;;;;;;;;;5032735;28;20078;-60
2023/02/17 10:45:11;;;;;;;0.60;0.22;;;;;;;;;;5052388;28;20017;-60
2023/02/17 10:47:38;;;;;;;0.88;0.30;;;;;;;;;;5042756;28;20077;-60
2023/02/17 10:50:07;;;;;;;0.35;0.20;;;;;;;;;;5031294;28;20041;-59
2023/02/17 10:52:37;;;;;;;0.35;0.20;;;;;;;;;;5031982;28;20080;-59
2023/02/17 10:55:06;;;;;;;1.85;0.40;;;;;;;;;;5032371;28;20110;-58
2023/02/17 10:57:34;;;;;;;0.80;0.20;;;;;;;;;;5031856;28;20079;-60
2023/02/17 11:00:01;;;;;;;0.28;0.20;;;;;;;;;;5032003;28;20075;-59
2023/02/17 11:02:29;;;;;;;0.13;0.13;;;;;;;;;;5032026;28;20025;-59
2023/02/17 11:04:58;;;;;;;0.77;0.30;;;;;;;;;;5032224;28;20095;-59
2023/02/17 11:07:35;;;;;;;0.50;0.25;;;;;;;;;;5031817;28;20032;-59
2023/02/17 11:10:02;;;;;;;1.10;0.30;;;;;;;;;;5031935;28;20041;-59
2023/02/17 11:12:39;;;;;;;1.08;0.30;;;;;;;;;;5031847;28;20037;-59
2023/02/17 11:15:14;;;;;;;0.30;0.20;;;;;;;;;;5031798;28;20029;-60
2023/02/17 11:17:40;;;;;;;0.50;0.20;;;;;;;;;;5031546;28;20029;-61
2023/02/17 11:20:08;;;;;;;0.30;0.20;;;;;;;;;;5031928;28;20056;-60
2023/02/17 11:22:37;;;;;;;0.77;0.40;;;;;;;;;;5031480;28;20028;-59
2023/02/17 11:25:06;;;;;;;0.60;0.30;;;;;;;;;;5031489;28;20108;-59
2023/02/17 11:27:32;;;;;;;0.32;0.20;;;;;;;;;;5030768;28;20398;-59
2023/02/17 11:30:09;;;;;;;0.95;0.40;;;;;;;;;;5041220;28;20034;-59
2023/02/17 11:32:35;;;;;;;2.60;0.30;;;;;;;;;;5030922;28;20044;-59
2023/02/17 11:35:05;;;;;;;1.33;0.40;;;;;;;;;;5031200;28;20052;-59
2023/02/17 11:37:32;;;;;;;2.13;0.40;;;;;;;;;;5030215;28;20029;-59
2023/02/17 11:39:59;;;;;;;1.55;0.30;;;;;;;;;;5031360;28;20022;-59
2023/02/17 11:42:28;;;;;;;0.70;0.32;;;;;;;;;;5031015;28;20045;-60
2023/02/17 11:44:55;;;;;;;1.00;0.20;;;;;;;;;;5031305;28;20385;-60
2023/02/17 11:47:24;;;;;;;0.93;0.20;;;;;;;;;;5029648;28;20086;-59
2023/02/17 11:50:04;;;;;;;0.82;0.40;;;;;;;;;;5030665;28;20026;-59
2023/02/17 11:52:36;;;;;;;1.05;0.38;;;;;;;;;;5035757;28;20071;-59
2023/02/17 11:55:18;;;;;;;0.25;0.22;;;;;;;;;;5039889;28;20397;-59
2023/02/17 11:57:49;;;;;;;0.68;0.30;;;;;;;;;;5035636;28;20033;-59
2023/02/17 12:00:17;;;;;;;0.40;0.30;;;;;;;;;;5046605;28;20047;-59
2023/02/17 12:02:49;;;;;;;0.50;0.30;;;;;;;;;;5037171;28;20082;-59
2023/02/17 12:05:30;;;;;;;1.13;0.30;;;;;;;;;;5039688;28;20583;-59
2023/02/17 12:08:05;;;;;;;0.40;0.30;;;;;;;;;;5047382;28;20521;-60
2023/02/17 12:10:43;;;;;;;0.60;0.20;;;;;;;;;;5035113;28;20456;-60
2023/02/17 12:13:19;;;;;;;2.28;0.30;;;;;;;;;;5037528;28;20413;-60
2023/02/17 12:15:48;;;;;;;0.40;0.20;;;;;;;;;;5034987;28;20048;-60
2023/02/17 12:18:14;;;;;;;0.60;0.30;;;;;;;;;;5046868;28;20021;-60
2023/02/17 12:20:59;;;;;;;1.42;0.32;;;;;;;;;;5043977;28;20449;-60
2023/02/17 12:23:44;;;;;;;1.13;0.30;;;;;;;;;;5042746;28;20059;-61
2023/02/17 12:26:28;;;;;;;0.90;0.30;;;;;;;;;;5033376;28;20101;-61
2023/02/17 12:29:13;;;;;;;1.27;0.40;;;;;;;;;;5042395;28;20091;-60
2023/02/17 12:31:42;;;;;;;0.80;0.22;;;;;;;;;;5038471;28;20034;-60
2023/02/17 12:34:17;;;;;;;1.15;0.40;;;;;;;;;;5046659;28;20025;-60
2023/02/17 12:36:43;;;;;;;0.40;0.30;;;;;;;;;;5036726;28;20104;-60
2023/02/17 12:39:12;;;;;;;1.00;0.25;;;;;;;;;;5040139;28;20513;-60
2023/02/17 12:41:40;;;;;;;1.50;0.30;;;;;;;;;;5043723;28;20036;-60
2023/02/17 12:44:11;;;;;;;1.60;0.30;;;;;;;;;;5033351;28;20493;-60
2023/02/17 12:46:45;;;;;;;1.67;0.40;;;;;;;;;;5044205;28;20026;-61
2023/02/17 12:49:13;;;;;;;1.05;0.32;;;;;;;;;;5040241;28;20118;-60
2023/02/17 12:51:42;;;;;;;1.23;0.38;;;;;;;;;;5035588;28;20140;-60
2023/02/17 12:54:16;;;;;;;1.38;0.30;;;;;;;;;;5047628;28;20025;-60
2023/02/17 12:56:49;;;;;;;2.03;0.38;;;;;;;;;;5043670;28;20036;-60
2023/02/17 12:59:17;;;;;;;3.30;0.50;;;;;;;;;;5040947;28;20526;-60
2023/02/17 13:02:03;;;;;;;1.15;0.30;;;;;;;;;;5034894;28;20167;-60
2023/02/17 13:04:30;;;;;;;2.05;0.38;;;;;;;;;;5019611;28;20029;-60
2023/02/17 13:07:34;;;;;;;1.10;0.28;;;;;;;;;;5041770;28;20026;-61
2023/02/17 13:10:01;;;;;;;1.15;0.38;;;;;;;;;;5027653;28;20052;-60
2023/02/17 13:12:27;;;;;;;6.05;0.30;;;;;;;;;;5028480;28;20534;-60
2023/02/17 13:15:13;;;;;;;3.88;0.50;;;;;;;;;;5032953;28;20037;-60
2023/02/17 13:17:40;;;;;;;0.82;0.30;;;;;;;;;;5047310;28;20405;-61
2023/02/17 13:20:09;;;;;;;1.30;0.40;;;;;;;;;;5036904;28;20041;-61
2023/02/17 13:22:39;;;;;;;0.63;0.32;;;;;;;;;;5047721;28;20032;-60
2023/02/17 13:25:05;;;;;;;2.55;0.30;;;;;;;;;;5037582;28;20409;-60
2023/02/17 13:27:33;;;;;;;0.57;0.25;;;;;;;;;;5046687;28;20392;-60
2023/02/17 13:29:59;;;;;;;1.15;0.30;;;;;;;;;;5036713;28;20540;-61
2023/02/17 13:32:29;;;;;;;2.80;0.30;;;;;;;;;;5048959;28;20404;-60
2023/02/17 13:35:00;;;;;;;0.75;0.40;;;;;;;;;;5040886;28;20033;-61
2023/02/17 13:37:32;;;;;;;2.13;0.30;;;;;;;;;;5040598;28;20032;-60
2023/02/17 13:39:59;;;;;;;1.33;0.30;;;;;;;;;;5050070;28;20032;-61
2023/02/17 13:42:28;;;;;;;0.82;0.40;;;;;;;;;;5036642;28;20067;-61
2023/02/17 13:44:54;;;;;;;1.65;0.45;;;;;;;;;;5046576;28;20452;-61
2023/02/17 13:47:24;;;;;;;2.70;0.30;;;;;;;;;;5053154;28;20021;-61
2023/02/17 13:49:54;;;;;;;1.90;0.82;;;;;;;;;;5037253;28;20034;-62
2023/02/17 13:52:24;;;;;;;0.75;0.30;;;;;;;;;;5049338;28;20026;-61
2023/02/17 13:54:51;;;;;;;0.60;0.20;;;;;;;;;;5040587;28;20028;-61
2023/02/17 13:57:28;;;;;;;0.55;0.20;;;;;;;;;;5041646;28;20485;-61
2023/02/17 14:00:04;;;;;;;0.35;0.25;;;;;;;;;;5032565;28;20037;-62
2023/02/17 14:02:30;;;;;;;1.02;0.40;;;;;;;;;;5022723;28;20524;-61
2023/02/17 14:04:56;;;;;;;0.93;0.25;;;;;;;;;;5038758;28;20084;-61
2023/02/17 14:07:22;;;;;;;0.52;0.20;;;;;;;;;;5031953;28;20493;-61
2023/02/17 14:09:53;;;;;;;0.95;0.30;;;;;;;;;;5032560;28;20052;-61
2023/02/17 14:12:22;;;;;;;0.73;0.30;;;;;;;;;;5033030;28;20057;-61
2023/02/17 14:14:48;;;;;;;1.17;0.52;;;;;;;;;;5032396;28;20025;-60
2023/02/17 14:17:29;;;;;;;0.88;0.45;;;;;;;;;;5033025;28;20052;-60
2023/02/17 14:19:55;;;;;;;1.58;0.93;;;;;;;;;;5032842;28;20069;-60
2023/02/17 14:22:24;;;;;;;1.30;0.35;;;;;;;;;;5032633;28;20017;-60
2023/02/17 14:24:59;;;;;;;0.77;0.40;;;;;;;;;;5031863;28;20025;-60
2023/02/17 14:27:25;;;;;;;1.23;0.30;;;;;;;;;;5032393;28;20478;-60
2023/02/17 14:29:51;;;;;;;1.60;0.40;;;;;;;;;;5030655;28;20040;-61
2023/02/17 14:32:26;;;;;;;0.60;0.20;;;;;;;;;;5031313;28;20429;-61
2023/02/17 14:34:52;;;;;;;1.75;0.30;;;;;;;;;;5031813;28;20025;-60
2023/02/17 14:37:22;;;;;;;1.00;0.40;;;;;;;;;;5032704;28;20026;-61
2023/02/17 14:39:49;;;;;;;0.40;0.30;;;;;;;;;;5031954;28;20047;-61
2023/02/17 14:42:15;;;;;;;0.60;0.40;;;;;;;;;;5032437;28;20052;-61
2023/02/17 14:44:41;;;;;;;0.88;0.28;;;;;;;;;;5032190;28;20478;-61
2023/02/17 14:47:07;;;;;;;1.17;0.30;;;;;;;;;;5032301;28;20108;-61
2023/02/17 14:49:33;;;;;;;1.20;0.30;;;;;;;;;;5031487;28;20113;-61
2023/02/17 14:52:00;;;;;;;0.50;0.20;;;;;;;;;;5030807;28;20044;-61
2023/02/17 14:54:28;;;;;;;1.05;0.32;;;;;;;;;;5030758;28;20041;-61